sensor_id;sensor_type;location;lat;lon;timestamp;pressure;altitude;pressure_sealevel;temperature;humidity
43071;BME280;36278;47.952;21.714;2022-08-21T00:02:18;99679.03;;;23.06;68.83
43071;BME280;36278;47.952;21.714;2022-08-21T00:04:45;99672.78;;;23.05;69.13
43071;BME280;36278;47.952;21.714;2022-08-21T00:07:11;99672.59;;;23.07;69.38
43071;BME280;36278;47.952;21.714;2022-08-21T00:09:36;99680.25;;;23.03;69.52
43071;BME280;36278;47.952;21.714;2022-08-21T00:12:04;99677.78;;;22.95;70.28
43071;BME280;36278;47.952;21.714;2022-08-21T00:14:30;99684.66;;;22.98;70.39
43071;BME280;36278;47.952;21.714;2022-08-21T00:16:56;99687.56;;;22.96;70.56
43071;BME280;36278;47.952;21.714;2022-08-21T00:19:21;99673.03;;;22.84;71.26
43071;BME280;36278;47.952;21.714;2022-08-21T00:21:54;99681.16;;;22.90;71.37
43071;BME280;36278;47.952;21.714;2022-08-21T00:24:20;99684.47;;;22.92;71.65
43071;BME280;36278;47.952;21.714;2022-08-21T00:26:46;99683.63;;;22.92;71.91
43071;BME280;36278;47.952;21.714;2022-08-21T00:29:13;99682.59;;;22.93;72.12
43071;BME280;36278;47.952;21.714;2022-08-21T00:31:38;99680.50;;;22.88;72.71
43071;BME280;36278;47.952;21.714;2022-08-21T00:34:04;99686.34;;;22.85;72.85
43071;BME280;36278;47.952;21.714;2022-08-21T00:36:30;99689.22;;;22.84;73.21
43071;BME280;36278;47.952;21.714;2022-08-21T00:38:56;99691.31;;;22.82;73.29
43071;BME280;36278;47.952;21.714;2022-08-21T00:41:22;99687.38;;;22.71;73.52
43071;BME280;36278;47.952;21.714;2022-08-21T00:43:48;99684.28;;;22.67;73.88
43071;BME280;36278;47.952;21.714;2022-08-21T00:46:16;99681.56;;;22.61;nan
43071;BME280;36278;47.952;21.714;2022-08-21T00:48:41;99678.66;;;22.56;74.41
43071;BME280;36278;47.952;21.714;2022-08-21T00:51:11;99676.81;;;22.50;74.48
43071;BME280;36278;47.952;21.714;2022-08-21T00:53:44;99681.56;;;22.54;74.35
43071;BME280;36278;47.952;21.714;2022-08-21T00:56:11;99676.00;;;22.49;74.66
43071;BME280;36278;47.952;21.714;2022-08-21T00:58:39;99676.59;;;22.45;74.57
43071;BME280;36278;47.952;21.714;2022-08-21T01:01:07;99673.91;;;22.45;74.89
43071;BME280;36278;47.952;21.714;2022-08-21T01:03:34;99672.88;;;22.46;74.88
43071;BME280;36278;47.952;21.714;2022-08-21T01:06:01;99664.16;;;22.37;74.78
43071;BME280;36278;47.952;21.714;2022-08-21T01:08:28;99665.19;;;22.36;75.17
43071;BME280;36278;47.952;21.714;2022-08-21T01:10:55;99660.41;;;22.38;75.21
43071;BME280;36278;47.952;21.714;2022-08-21T01:13:22;99654.00;;;22.32;75.24
43071;BME280;36278;47.952;21.714;2022-08-21T01:15:51;99647.13;;;22.23;75.64
43071;BME280;36278;47.952;21.714;2022-08-21T01:18:19;99648.16;;;22.22;75.56
43071;BME280;36278;47.952;21.714;2022-08-21T01:21:16;99653.59;;;22.09;76.38
43071;BME280;36278;47.952;21.714;2022-08-21T01:23:44;99644.44;;;22.10;76.39
43071;BME280;36278;47.952;21.714;2022-08-21T01:26:12;99644.66;;;22.08;76.35
43071;BME280;36278;47.952;21.714;2022-08-21T01:28:46;99645.28;;;22.10;76.33
43071;BME280;36278;47.952;21.714;2022-08-21T01:31:14;99652.75;;;22.08;76.35
43071;BME280;36278;47.952;21.714;2022-08-21T01:33:40;99651.28;;;22.13;76.11
43071;BME280;36278;47.952;21.714;2022-08-21T01:36:06;99647.34;;;22.08;76.01
43071;BME280;36278;47.952;21.714;2022-08-21T01:38:32;99660.22;;;22.13;76.01
43071;BME280;36278;47.952;21.714;2022-08-21T01:40:58;99656.50;;;22.07;76.27
43071;BME280;36278;47.952;21.714;2022-08-21T01:43:24;99653.59;;;22.09;76.21
43071;BME280;36278;47.952;21.714;2022-08-21T01:45:49;99641.13;;;22.08;76.12
43071;BME280;36278;47.952;21.714;2022-08-21T01:48:15;99640.47;;;21.99;76.27
43071;BME280;36278;47.952;21.714;2022-08-21T01:50:40;99645.66;;;21.94;76.62
43071;BME280;36278;47.952;21.714;2022-08-21T01:53:06;99648.13;;;21.96;76.45
43071;BME280;36278;47.952;21.714;2022-08-21T01:55:31;99650.81;;;21.89;76.69
43071;BME280;36278;47.952;21.714;2022-08-21T01:57:57;99657.25;;;21.88;76.81
43071;BME280;36278;47.952;21.714;2022-08-21T02:00:24;99652.91;;;21.87;76.67
43071;BME280;36278;47.952;21.714;2022-08-21T02:02:50;99643.75;;;21.81;76.81
43071;BME280;36278;47.952;21.714;2022-08-21T02:05:16;99649.16;;;21.81;76.78
43071;BME280;36278;47.952;21.714;2022-08-21T02:07:45;99654.16;;;21.85;76.86
43071;BME280;36278;47.952;21.714;2022-08-21T02:10:15;99657.88;;;21.83;76.87
43071;BME280;36278;47.952;21.714;2022-08-21T02:12:41;99660.59;;;21.83;76.78
43071;BME280;36278;47.952;21.714;2022-08-21T02:15:07;99658.06;;;21.82;76.68
43071;BME280;36278;47.952;21.714;2022-08-21T02:17:54;99663.06;;;21.78;76.95
43071;BME280;36278;47.952;21.714;2022-08-21T02:20:27;99662.22;;;21.78;77.09
43071;BME280;36278;47.952;21.714;2022-08-21T02:22:53;99648.28;;;21.61;77.62
43071;BME280;36278;47.952;21.714;2022-08-21T02:25:21;99650.34;;;21.66;77.67
43071;BME280;36278;47.952;21.714;2022-08-21T02:27:47;99651.00;;;21.68;77.71
43071;BME280;36278;47.952;21.714;2022-08-21T02:30:26;99645.78;;;21.66;77.61
43071;BME280;36278;47.952;21.714;2022-08-21T02:32:52;99644.34;;;21.64;77.59
43071;BME280;36278;47.952;21.714;2022-08-21T02:35:18;99646.44;;;21.62;78.00
43071;BME280;36278;47.952;21.714;2022-08-21T02:37:53;99645.16;;;21.58;78.15
43071;BME280;36278;47.952;21.714;2022-08-21T02:40:22;99640.59;;;21.51;78.51
43071;BME280;36278;47.952;21.714;2022-08-21T02:42:48;99648.88;;;21.57;78.45
43071;BME280;36278;47.952;21.714;2022-08-21T02:45:14;99640.81;;;21.57;78.40
43071;BME280;36278;47.952;21.714;2022-08-21T02:47:47;99632.31;;;21.53;78.69
43071;BME280;36278;47.952;21.714;2022-08-21T02:50:12;99627.53;;;21.48;78.70
43071;BME280;36278;47.952;21.714;2022-08-21T02:52:38;99624.63;;;21.50;78.87
43071;BME280;36278;47.952;21.714;2022-08-21T02:55:04;99626.47;;;21.49;78.93
43071;BME280;36278;47.952;21.714;2022-08-21T02:57:30;99617.19;;;21.52;78.65
43071;BME280;36278;47.952;21.714;2022-08-21T02:59:58;99622.34;;;21.53;78.98
43071;BME280;36278;47.952;21.714;2022-08-21T03:02:23;99614.50;;;21.59;78.86
43071;BME280;36278;47.952;21.714;2022-08-21T03:04:48;99623.22;;;21.61;78.75
43071;BME280;36278;47.952;21.714;2022-08-21T03:07:14;99621.34;;;21.61;78.70
43071;BME280;36278;47.952;21.714;2022-08-21T03:09:40;99615.94;;;21.54;78.90
43071;BME280;36278;47.952;21.714;2022-08-21T03:12:05;99619.91;;;21.59;78.97
43071;BME280;36278;47.952;21.714;2022-08-21T03:14:31;99632.72;;;21.57;78.87
43071;BME280;36278;47.952;21.714;2022-08-21T03:16:56;99631.88;;;21.56;79.04
43071;BME280;36278;47.952;21.714;2022-08-21T03:19:22;99633.53;;;21.57;79.04
43071;BME280;36278;47.952;21.714;2022-08-21T03:21:47;99622.97;;;21.49;78.84
43071;BME280;36278;47.952;21.714;2022-08-21T03:24:13;99626.47;;;21.49;79.25
43071;BME280;36278;47.952;21.714;2022-08-21T03:26:38;99631.47;;;21.46;79.30
43071;BME280;36278;47.952;21.714;2022-08-21T03:29:04;99627.69;;;21.40;79.81
43071;BME280;36278;47.952;21.714;2022-08-21T03:31:30;99636.00;;;21.39;79.97
43071;BME280;36278;47.952;21.714;2022-08-21T03:33:57;99640.16;;;21.35;80.19
43071;BME280;36278;47.952;21.714;2022-08-21T03:36:24;99645.09;;;21.31;80.43
43071;BME280;36278;47.952;21.714;2022-08-21T03:38:49;99648.81;;;21.30;80.66
43071;BME280;36278;47.952;21.714;2022-08-21T03:41:15;99649.66;;;21.31;80.57
43071;BME280;36278;47.952;21.714;2022-08-21T03:43:40;99643.16;;;21.25;80.62
43071;BME280;36278;47.952;21.714;2022-08-21T03:46:06;99652.06;;;21.25;80.92
43071;BME280;36278;47.952;21.714;2022-08-21T03:48:33;99658.75;;;21.30;80.79
43071;BME280;36278;47.952;21.714;2022-08-21T03:50:58;99660.41;;;21.31;80.65
43071;BME280;36278;47.952;21.714;2022-08-21T03:53:24;99651.31;;;21.32;80.87
43071;BME280;36278;47.952;21.714;2022-08-21T03:55:51;99648.41;;;21.33;80.78
43071;BME280;36278;47.952;21.714;2022-08-21T03:58:20;99653.38;;;21.30;80.98
43071;BME280;36278;47.952;21.714;2022-08-21T04:00:49;99649.16;;;21.20;81.46
43071;BME280;36278;47.952;21.714;2022-08-21T04:03:16;99654.34;;;21.22;81.46
43071;BME280;36278;47.952;21.714;2022-08-21T04:05:42;99657.47;;;21.19;81.87
43071;BME280;36278;47.952;21.714;2022-08-21T04:08:08;99657.03;;;21.22;81.69
43071;BME280;36278;47.952;21.714;2022-08-21T04:10:35;99664.97;;;21.30;81.41
43071;BME280;36278;47.952;21.714;2022-08-21T04:13:03;99668.09;;;21.34;81.05
43071;BME280;36278;47.952;21.714;2022-08-21T04:15:28;99658.75;;;21.30;81.43
43071;BME280;36278;47.952;21.714;2022-08-21T04:17:54;99659.66;;;21.09;82.49
43071;BME280;36278;47.952;21.714;2022-08-21T04:20:20;99657.38;;;21.06;82.83
43071;BME280;36278;47.952;21.714;2022-08-21T04:22:47;99668.22;;;21.19;82.50
43071;BME280;36278;47.952;21.714;2022-08-21T04:25:14;99662.22;;;21.23;81.96
43071;BME280;36278;47.952;21.714;2022-08-21T04:27:40;99665.94;;;21.22;82.32
43071;BME280;36278;47.952;21.714;2022-08-21T04:30:07;99664.25;;;21.15;82.56
43071;BME280;36278;47.952;21.714;2022-08-21T04:32:37;99660.16;;;21.19;82.33
43071;BME280;36278;47.952;21.714;2022-08-21T04:35:07;99676.78;;;21.29;81.96
43071;BME280;36278;47.952;21.714;2022-08-21T04:37:33;99685.09;;;21.27;82.01
43071;BME280;36278;47.952;21.714;2022-08-21T04:39:59;99679.41;;;21.22;82.39
43071;BME280;36278;47.952;21.714;2022-08-21T04:42:26;99687.78;;;21.27;82.55
43071;BME280;36278;47.952;21.714;2022-08-21T04:44:53;99690.72;;;21.39;81.89
43071;BME280;36278;47.952;21.714;2022-08-21T04:47:19;99690.75;;;21.46;81.59
43071;BME280;36278;47.952;21.714;2022-08-21T04:49:45;99702.75;;;21.50;81.31
43071;BME280;36278;47.952;21.714;2022-08-21T04:52:11;99699.06;;;21.51;81.40
43071;BME280;36278;47.952;21.714;2022-08-21T04:54:39;99704.44;;;21.58;81.31
43071;BME280;36278;47.952;21.714;2022-08-21T04:57:06;99709.47;;;21.61;81.23
43071;BME280;36278;47.952;21.714;2022-08-21T04:59:40;99702.41;;;21.66;80.98
43071;BME280;36278;47.952;21.714;2022-08-21T05:02:08;99707.00;;;21.72;80.78
43071;BME280;36278;47.952;21.714;2022-08-21T05:04:41;99713.66;;;21.76;80.48
43071;BME280;36278;47.952;21.714;2022-08-21T05:07:14;99713.47;;;21.85;80.04
43071;BME280;36278;47.952;21.714;2022-08-21T05:09:41;99712.81;;;21.82;80.19
43071;BME280;36278;47.952;21.714;2022-08-21T05:12:07;99717.59;;;21.80;79.96
43071;BME280;36278;47.952;21.714;2022-08-21T05:14:33;99719.03;;;21.76;80.49
43071;BME280;36278;47.952;21.714;2022-08-21T05:16:58;99716.97;;;21.78;80.53
43071;BME280;36278;47.952;21.714;2022-08-21T05:19:24;99697.69;;;21.81;80.51
43071;BME280;36278;47.952;21.714;2022-08-21T05:21:51;99708.47;;;21.81;80.37
43071;BME280;36278;47.952;21.714;2022-08-21T05:24:17;99706.41;;;21.83;80.66
43071;BME280;36278;47.952;21.714;2022-08-21T05:26:43;99710.13;;;21.82;80.43
43071;BME280;36278;47.952;21.714;2022-08-21T05:29:10;99714.91;;;21.87;80.97
43071;BME280;36278;47.952;21.714;2022-08-21T05:31:36;99709.09;;;21.90;80.83
43071;BME280;36278;47.952;21.714;2022-08-21T05:34:02;99705.16;;;21.86;80.62
43071;BME280;36278;47.952;21.714;2022-08-21T05:36:29;99715.53;;;21.89;80.83
43071;BME280;36278;47.952;21.714;2022-08-21T05:38:54;99712.03;;;21.95;80.86
43071;BME280;36278;47.952;21.714;2022-08-21T05:41:19;99715.13;;;21.99;80.88
43071;BME280;36278;47.952;21.714;2022-08-21T05:43:45;99716.63;;;22.01;81.10
43071;BME280;36278;47.952;21.714;2022-08-21T05:46:10;99717.44;;;22.02;81.07
43071;BME280;36278;47.952;21.714;2022-08-21T05:48:36;99727.03;;;22.11;80.75
43071;BME280;36278;47.952;21.714;2022-08-21T05:51:08;99722.88;;;22.22;80.19
43071;BME280;36278;47.952;21.714;2022-08-21T05:53:34;99725.38;;;22.30;79.95
43071;BME280;36278;47.952;21.714;2022-08-21T05:55:59;99726.44;;;22.35;79.76
43071;BME280;36278;47.952;21.714;2022-08-21T05:58:25;99714.19;;;22.46;79.26
43071;BME280;36278;47.952;21.714;2022-08-21T06:00:51;99708.78;;;22.59;78.56
43071;BME280;36278;47.952;21.714;2022-08-21T06:03:24;99703.38;;;22.73;78.16
43071;BME280;36278;47.952;21.714;2022-08-21T06:05:49;99703.78;;;22.63;78.94
43071;BME280;36278;47.952;21.714;2022-08-21T06:08:16;99710.84;;;22.77;77.90
43071;BME280;36278;47.952;21.714;2022-08-21T06:10:42;99702.13;;;22.88;77.24
43071;BME280;36278;47.952;21.714;2022-08-21T06:13:08;99700.44;;;22.87;76.88
43071;BME280;36278;47.952;21.714;2022-08-21T06:15:34;99702.13;;;22.69;78.04
43071;BME280;36278;47.952;21.714;2022-08-21T06:17:59;99699.63;;;22.60;78.50
43071;BME280;36278;47.952;21.714;2022-08-21T06:20:25;99691.53;;;22.74;77.35
43071;BME280;36278;47.952;21.714;2022-08-21T06:22:51;99698.16;;;22.84;77.16
43071;BME280;36278;47.952;21.714;2022-08-21T06:25:17;99695.69;;;22.76;77.94
43071;BME280;36278;47.952;21.714;2022-08-21T06:27:43;99699.44;;;22.69;78.42
43071;BME280;36278;47.952;21.714;2022-08-21T06:30:09;99698.38;;;22.76;77.40
43071;BME280;36278;47.952;21.714;2022-08-21T06:32:35;99705.22;;;22.72;77.80
43071;BME280;36278;47.952;21.714;2022-08-21T06:35:02;99702.13;;;22.82;77.58
43071;BME280;36278;47.952;21.714;2022-08-21T06:37:27;99698.38;;;22.76;78.35
43071;BME280;36278;47.952;21.714;2022-08-21T06:39:53;99698.59;;;22.81;77.49
43071;BME280;36278;47.952;21.714;2022-08-21T06:42:18;99702.31;;;22.80;77.53
43071;BME280;36278;47.952;21.714;2022-08-21T06:44:43;99682.38;;;22.81;77.62
43071;BME280;36278;47.952;21.714;2022-08-21T06:47:09;99687.34;;;22.84;76.96
43071;BME280;36278;47.952;21.714;2022-08-21T06:49:36;99684.03;;;22.82;76.68
43071;BME280;36278;47.952;21.714;2022-08-21T06:52:01;99681.13;;;22.84;77.22
43071;BME280;36278;47.952;21.714;2022-08-21T06:54:27;99681.75;;;22.99;75.96
43071;BME280;36278;47.952;21.714;2022-08-21T06:56:52;99667.00;;;22.95;76.42
43071;BME280;36278;47.952;21.714;2022-08-21T06:59:18;99681.75;;;22.92;75.41
43071;BME280;36278;47.952;21.714;2022-08-21T07:01:43;99681.97;;;22.98;75.59
43071;BME280;36278;47.952;21.714;2022-08-21T07:04:09;99687.91;;;23.13;74.50
43071;BME280;36278;47.952;21.714;2022-08-21T07:06:36;99691.84;;;23.24;73.86
43071;BME280;36278;47.952;21.714;2022-08-21T07:09:02;99682.72;;;23.18;74.55
43071;BME280;36278;47.952;21.714;2022-08-21T07:11:28;99691.44;;;23.20;74.97
43071;BME280;36278;47.952;21.714;2022-08-21T07:13:54;99692.00;;;23.35;74.51
43071;BME280;36278;47.952;21.714;2022-08-21T07:16:21;99701.56;;;23.38;74.08
43071;BME280;36278;47.952;21.714;2022-08-21T07:18:47;99700.75;;;23.31;74.58
43071;BME280;36278;47.952;21.714;2022-08-21T07:21:14;99704.06;;;23.33;74.75
43071;BME280;36278;47.952;21.714;2022-08-21T07:23:43;99712.56;;;23.36;74.20
43071;BME280;36278;47.952;21.714;2022-08-21T07:26:09;99698.88;;;23.31;74.55
43071;BME280;36278;47.952;21.714;2022-08-21T07:28:35;99701.16;;;23.34;74.56
43071;BME280;36278;47.952;21.714;2022-08-21T07:31:02;99698.44;;;23.41;73.72
43071;BME280;36278;47.952;21.714;2022-08-21T07:33:30;99706.69;;;23.53;73.71
43071;BME280;36278;47.952;21.714;2022-08-21T07:35:56;99700.66;;;23.50;72.84
43071;BME280;36278;47.952;21.714;2022-08-21T07:38:22;99695.63;;;23.67;72.63
43071;BME280;36278;47.952;21.714;2022-08-21T07:40:48;99702.03;;;23.80;72.06
43071;BME280;36278;47.952;21.714;2022-08-21T07:43:15;99701.31;;;23.91;70.74
43071;BME280;36278;47.952;21.714;2022-08-21T07:45:44;99696.69;;;23.98;70.75
43071;BME280;36278;47.952;21.714;2022-08-21T07:48:10;99694.16;;;24.03;70.45
43071;BME280;36278;47.952;21.714;2022-08-21T07:50:36;99693.38;;;23.96;70.61
43071;BME280;36278;47.952;21.714;2022-08-21T07:53:02;99692.72;;;24.00;70.61
43071;BME280;36278;47.952;21.714;2022-08-21T07:55:28;99692.44;;;24.09;69.97
43071;BME280;36278;47.952;21.714;2022-08-21T07:57:53;99697.00;;;24.15;69.53
43071;BME280;36278;47.952;21.714;2022-08-21T08:00:22;99687.81;;;24.16;69.42
43071;BME280;36278;47.952;21.714;2022-08-21T08:02:50;99694.00;;;24.23;69.11
43071;BME280;36278;47.952;21.714;2022-08-21T08:05:18;99687.56;;;24.24;69.65
43071;BME280;36278;47.952;21.714;2022-08-21T08:07:44;99688.31;;;24.31;69.34
43071;BME280;36278;47.952;21.714;2022-08-21T08:10:10;99695.03;;;24.28;68.28
43071;BME280;36278;47.952;21.714;2022-08-21T08:12:38;99695.22;;;24.27;68.90
43071;BME280;36278;47.952;21.714;2022-08-21T08:15:06;99700.63;;;24.27;68.50
43071;BME280;36278;47.952;21.714;2022-08-21T08:17:32;99693.38;;;24.27;68.47
43071;BME280;36278;47.952;21.714;2022-08-21T08:19:58;99697.09;;;24.26;68.98
43071;BME280;36278;47.952;21.714;2022-08-21T08:22:26;99695.66;;;24.24;69.04
43071;BME280;36278;47.952;21.714;2022-08-21T08:24:52;99695.28;;;24.20;68.97
43071;BME280;36278;47.952;21.714;2022-08-21T08:27:19;99681.19;;;24.12;68.73
43071;BME280;36278;47.952;21.714;2022-08-21T08:29:45;99689.38;;;24.05;68.77
43071;BME280;36278;47.952;21.714;2022-08-21T08:32:10;99689.59;;;24.03;68.87
43071;BME280;36278;47.952;21.714;2022-08-21T08:34:37;99690.47;;;23.97;68.53
43071;BME280;36278;47.952;21.714;2022-08-21T08:37:05;99695.47;;;23.94;68.52
43071;BME280;36278;47.952;21.714;2022-08-21T08:39:30;99688.38;;;23.93;68.22
43071;BME280;36278;47.952;21.714;2022-08-21T08:42:09;99698.16;;;23.94;67.93
43071;BME280;36278;47.952;21.714;2022-08-21T08:44:40;99698.38;;;23.92;67.27
43071;BME280;36278;47.952;21.714;2022-08-21T08:47:09;99697.13;;;23.95;67.42
43071;BME280;36278;47.952;21.714;2022-08-21T08:52:41;99712.97;;;23.91;69.17
43071;BME280;36278;47.952;21.714;2022-08-21T08:55:16;99717.94;;;23.94;69.87
43071;BME280;36278;47.952;21.714;2022-08-21T08:57:46;99718.38;;;23.91;72.22
43071;BME280;36278;47.952;21.714;2022-08-21T09:00:14;99719.47;;;23.84;74.80
43071;BME280;36278;47.952;21.714;2022-08-21T09:02:42;99719.09;;;23.73;75.54
43071;BME280;36278;47.952;21.714;2022-08-21T09:05:37;99713.53;;;23.62;77.80
43071;BME280;36278;47.952;21.714;2022-08-21T09:10:38;99717.56;;;23.39;78.77
43071;BME280;36278;47.952;21.714;2022-08-21T09:15:54;99737.13;;;23.35;81.21
43071;BME280;36278;47.952;21.714;2022-08-21T09:23:55;99742.97;;;23.25;80.48
43071;BME280;36278;47.952;21.714;2022-08-21T09:26:29;99742.78;;;23.20;81.33
43071;BME280;36278;47.952;21.714;2022-08-21T09:28:58;99744.03;;;23.17;81.28
43071;BME280;36278;47.952;21.714;2022-08-21T09:31:32;99747.16;;;23.14;82.58
43071;BME280;36278;47.952;21.714;2022-08-21T09:34:04;99750.50;;;23.03;83.06
43071;BME280;36278;47.952;21.714;2022-08-21T09:36:44;99748.22;;;23.00;84.25
43071;BME280;36278;47.952;21.714;2022-08-21T09:39:12;99758.00;;;23.01;83.98
43071;BME280;36278;47.952;21.714;2022-08-21T09:41:39;99762.56;;;22.94;86.01
43071;BME280;36278;47.952;21.714;2022-08-21T09:44:06;99758.00;;;22.94;86.06
43071;BME280;36278;47.952;21.714;2022-08-21T09:46:31;99762.56;;;22.87;85.99
43071;BME280;36278;47.952;21.714;2022-08-21T09:49:00;99761.31;;;22.77;87.24
43071;BME280;36278;47.952;21.714;2022-08-21T09:51:29;99753.03;;;22.65;88.65
43071;BME280;36278;47.952;21.714;2022-08-21T09:54:17;99756.53;;;22.52;88.84
43071;BME280;36278;47.952;21.714;2022-08-21T09:56:59;99748.22;;;22.47;90.18
43071;BME280;36278;47.952;21.714;2022-08-21T09:59:44;99746.56;;;22.46;90.47
43071;BME280;36278;47.952;21.714;2022-08-21T10:02:34;99750.91;;;22.47;91.64
43071;BME280;36278;47.952;21.714;2022-08-21T10:05:08;99749.06;;;22.48;92.32
43071;BME280;36278;47.952;21.714;2022-08-21T10:07:37;99746.16;;;22.43;91.73
43071;BME280;36278;47.952;21.714;2022-08-21T10:10:16;99751.56;;;22.43;91.20
43071;BME280;36278;47.952;21.714;2022-08-21T10:12:52;99750.72;;;22.35;91.16
43071;BME280;36278;47.952;21.714;2022-08-21T10:15:47;99752.38;;;22.36;91.91
43071;BME280;36278;47.952;21.714;2022-08-21T10:18:40;99745.31;;;22.29;94.27
43071;BME280;36278;47.952;21.714;2022-08-21T10:21:18;99741.16;;;22.26;94.32
43071;BME280;36278;47.952;21.714;2022-08-21T10:29:28;99728.69;;;22.12;95.04
43071;BME280;36278;47.952;21.714;2022-08-21T10:42:47;99740.63;;;21.76;99.08
43071;BME280;36278;47.952;21.714;2022-08-21T10:45:41;99736.66;;;21.72;97.73
43071;BME280;36278;47.952;21.714;2022-08-21T10:48:28;99729.00;;;21.76;99.46
43071;BME280;36278;47.952;21.714;2022-08-21T10:50:55;99725.03;;;21.72;100.00
43071;BME280;36278;47.952;21.714;2022-08-21T10:56:02;99717.78;;;21.72;99.85
43071;BME280;36278;47.952;21.714;2022-08-21T10:58:31;99719.25;;;21.81;100.00
43071;BME280;36278;47.952;21.714;2022-08-21T11:01:07;99722.78;;;21.89;99.44
43071;BME280;36278;47.952;21.714;2022-08-21T11:03:37;99714.09;;;21.93;98.88
43071;BME280;36278;47.952;21.714;2022-08-21T11:06:06;99705.56;;;21.90;97.68
43071;BME280;36278;47.952;21.714;2022-08-21T11:08:37;99699.78;;;21.93;93.32
43071;BME280;36278;47.952;21.714;2022-08-21T11:11:10;99693.56;;;21.86;91.79
43071;BME280;36278;47.952;21.714;2022-08-21T11:16:25;99693.75;;;21.91;92.16
43071;BME280;36278;47.952;21.714;2022-08-21T11:19:02;99697.78;;;22.08;93.04
43071;BME280;36278;47.952;21.714;2022-08-21T11:21:50;99690.31;;;22.17;90.15
43071;BME280;36278;47.952;21.714;2022-08-21T11:27:08;99682.56;;;22.07;93.03
43071;BME280;36278;47.952;21.714;2022-08-21T11:29:38;99682.16;;;21.97;90.74
43071;BME280;36278;47.952;21.714;2022-08-21T11:32:27;99682.16;;;22.03;92.32
43071;BME280;36278;47.952;21.714;2022-08-21T11:45:52;99668.94;;;22.28;92.96
43071;BME280;36278;47.952;21.714;2022-08-21T11:54:05;99650.59;;;22.77;88.77
43071;BME280;36278;47.952;21.714;2022-08-21T11:56:44;99634.78;;;22.93;87.35
43071;BME280;36278;47.952;21.714;2022-08-21T11:59:16;99626.88;;;23.05;86.56
43071;BME280;36278;47.952;21.714;2022-08-21T12:01:46;99631.19;;;23.13;85.54
43071;BME280;36278;47.952;21.714;2022-08-21T12:04:31;99624.69;;;23.27;83.21
43071;BME280;36278;47.952;21.714;2022-08-21T12:07:11;99627.19;;;23.67;84.26
43071;BME280;36278;47.952;21.714;2022-08-21T12:09:38;99621.31;;;24.26;80.01
43071;BME280;36278;47.952;21.714;2022-08-21T12:14:46;99603.69;;;25.04;72.14
43071;BME280;36278;47.952;21.714;2022-08-21T12:17:23;99601.69;;;25.59;70.69
43071;BME280;36278;47.952;21.714;2022-08-21T12:20:00;99593.50;;;25.78;68.55
43071;BME280;36278;47.952;21.714;2022-08-21T12:22:38;99595.53;;;25.82;68.96
43071;BME280;36278;47.952;21.714;2022-08-21T12:25:07;99591.34;;;25.38;67.39
43071;BME280;36278;47.952;21.714;2022-08-21T12:28:07;99587.31;;;24.92;74.11
43071;BME280;36278;47.952;21.714;2022-08-21T12:30:37;99582.72;;;24.74;70.57
43071;BME280;36278;47.952;21.714;2022-08-21T12:35:47;99573.78;;;25.10;70.12
43071;BME280;36278;47.952;21.714;2022-08-21T12:38:29;99583.84;;;25.22;71.15
43071;BME280;36278;47.952;21.714;2022-08-21T12:41:07;99574.31;;;25.61;69.53
43071;BME280;36278;47.952;21.714;2022-08-21T12:43:46;99563.53;;;25.96;68.32
43071;BME280;36278;47.952;21.714;2022-08-21T12:46:19;99573.34;;;25.55;69.37
43071;BME280;36278;47.952;21.714;2022-08-21T12:48:59;99574.09;;;25.32;67.55
43071;BME280;36278;47.952;21.714;2022-08-21T12:51:46;99575.97;;;25.62;64.02
43071;BME280;36278;47.952;21.714;2022-08-21T12:54:23;99582.34;;;25.67;68.58
43071;BME280;36278;47.952;21.714;2022-08-21T12:57:00;99572.78;;;25.65;66.85
43071;BME280;36278;47.952;21.714;2022-08-21T12:59:27;99567.09;;;25.85;67.37
43071;BME280;36278;47.952;21.714;2022-08-21T13:01:53;99565.56;;;26.01;64.67
43071;BME280;36278;47.952;21.714;2022-08-21T13:04:37;99564.88;;;26.17;62.16
43071;BME280;36278;47.952;21.714;2022-08-21T13:07:07;99564.72;;;26.12;62.22
43071;BME280;36278;47.952;21.714;2022-08-21T13:09:49;99562.84;;;26.12;62.03
43071;BME280;36278;47.952;21.714;2022-08-21T13:12:17;99551.03;;;25.95;62.75
43071;BME280;36278;47.952;21.714;2022-08-21T13:14:45;99563.78;;;26.06;62.44
43071;BME280;36278;47.952;21.714;2022-08-21T13:17:19;99549.16;;;25.84;62.86
43071;BME280;36278;47.952;21.714;2022-08-21T13:19:56;99550.81;;;25.55;62.92
43071;BME280;36278;47.952;21.714;2022-08-21T13:22:23;99550.19;;;25.71;65.07
43071;BME280;36278;47.952;21.714;2022-08-21T13:24:49;99543.09;;;25.82;62.43
43071;BME280;36278;47.952;21.714;2022-08-21T13:27:18;99534.16;;;25.93;62.82
43071;BME280;36278;47.952;21.714;2022-08-21T13:29:44;99532.28;;;26.05;64.13
43071;BME280;36278;47.952;21.714;2022-08-21T13:32:23;99520.47;;;26.11;63.13
43071;BME280;36278;47.952;21.714;2022-08-21T13:34:50;99532.16;;;26.12;62.13
43071;BME280;36278;47.952;21.714;2022-08-21T13:37:17;99529.09;;;26.20;61.08
43071;BME280;36278;47.952;21.714;2022-08-21T13:39:49;99534.50;;;26.20;60.83
43071;BME280;36278;47.952;21.714;2022-08-21T13:42:14;99535.09;;;26.22;61.44
43071;BME280;36278;47.952;21.714;2022-08-21T13:44:43;99530.03;;;26.25;63.26
43071;BME280;36278;47.952;21.714;2022-08-21T13:47:11;99522.03;;;26.07;62.17
43071;BME280;36278;47.952;21.714;2022-08-21T13:49:41;99534.53;;;26.08;60.03
43071;BME280;36278;47.952;21.714;2022-08-21T13:52:25;99526.63;;;26.07;59.16
43071;BME280;36278;47.952;21.714;2022-08-21T13:54:57;99532.75;;;25.90;60.78
43071;BME280;36278;47.952;21.714;2022-08-21T13:57:29;99534.16;;;25.93;60.58
43071;BME280;36278;47.952;21.714;2022-08-21T14:00:13;99536.16;;;25.97;61.83
43071;BME280;36278;47.952;21.714;2022-08-21T14:02:42;99535.22;;;25.80;61.03